Time,TemperatureF,DewpointF,PressureIn,WindDirection,WindDirectionDegrees,WindSpeedMPH,WindSpeedGustMPH,Humidity,HourlyPrecipIn,Conditions,Clouds,dailyrainin,SoftwareType,DateUTC
2013-05-19 00:11:00,56.7,56.1,29.44,NE,45,0.0,1.3,98,0.00,,---,0.00,VWS V14.01,2013-05-19 06:11:00,
2013-05-19 00:26:00,56.8,55.7,29.47,NW,315,1.3,1.3,96,0.00,,---,0.00,VWS V14.01,2013-05-19 06:26:00,
2013-05-19 00:41:00,57.7,54.5,29.47,WNW,292,7.2,7.2,89,0.00,,---,0.00,VWS V14.01,2013-05-19 06:41:00,
2013-05-19 00:56:00,57.7,53.9,29.47,NW,315,6.5,7.2,87,0.00,,---,0.00,VWS V14.01,2013-05-19 06:56:00,
2013-05-19 01:11:00,57.6,54.0,29.50,NNW,338,2.9,6.5,88,0.00,,---,0.00,VWS V14.01,2013-05-19 07:11:00,
2013-05-19 01:26:00,57.2,54.0,29.50,NNW,338,1.3,2.9,89,0.00,,---,0.00,VWS V14.01,2013-05-19 07:26:00,
2013-05-19 01:41:00,56.3,54.6,29.50,NNW,338,3.4,3.4,94,0.00,,---,0.00,VWS V14.01,2013-05-19 07:41:00,
2013-05-19 01:56:00,56.1,55.3,29.47,WNW,292,6.5,6.5,97,0.00,,---,0.00,VWS V14.01,2013-05-19 07:56:00,
2013-05-19 02:11:00,56.1,55.3,29.50,WNW,292,6.5,6.5,97,0.00,,---,0.00,VWS V14.01,2013-05-19 08:11:00,
2013-05-19 02:26:00,56.3,55.2,29.50,NW,315,3.1,6.5,96,0.00,,---,0.00,VWS V14.01,2013-05-19 08:26:00,
2013-05-19 02:41:00,56.3,55.2,29.50,North,0,2.0,3.1,96,0.00,,---,0.00,VWS V14.01,2013-05-19 08:41:00,
2013-05-19 02:56:00,56.1,55.0,29.50,NNE,22,5.6,5.6,96,0.00,,---,0.00,VWS V14.01,2013-05-19 08:56:00,
2013-05-19 03:11:00,55.6,55.0,29.50,NNW,338,2.0,5.6,98,0.00,,---,0.00,VWS V14.01,2013-05-19 09:11:00,
2013-05-19 03:26:00,55.4,55.4,29.50,NW,315,1.6,2.0,100,0.00,,---,0.00,VWS V14.01,2013-05-19 09:26:00,
2013-05-19 03:41:00,55.4,55.1,29.50,NE,45,3.4,3.4,99,0.04,,---,0.04,VWS V14.01,2013-05-19 09:41:00,
2013-05-19 03:56:00,55.2,55.2,29.50,SW,225,2.5,3.4,100,0.04,,---,0.04,VWS V14.01,2013-05-19 09:56:00,
2013-05-19 04:11:00,55.2,55.2,29.50,WNW,292,2.9,2.9,100,0.04,,---,0.04,VWS V14.01,2013-05-19 10:11:00,
2013-05-19 04:26:00,55.4,54.3,29.50,SW,225,1.6,2.9,96,0.04,,---,0.04,VWS V14.01,2013-05-19 10:26:00,
2013-05-19 04:41:00,55.6,53.6,29.50,NW,315,4.0,4.0,93,0.04,,---,0.04,VWS V14.01,2013-05-19 10:41:00,
2013-05-19 04:56:00,55.8,53.5,29.50,NNW,338,0.0,4.0,92,0.00,,---,0.04,VWS V14.01,2013-05-19 10:56:00,
2013-05-19 05:11:00,55.2,53.2,29.47,ENE,68,0.0,0.0,93,0.00,,---,0.04,VWS V14.01,2013-05-19 11:11:00,
2013-05-19 05:26:00,54.7,53.3,29.50,NNW,338,1.3,1.3,95,0.00,,---,0.04,VWS V14.01,2013-05-19 11:26:00,
2013-05-19 05:41:00,54.7,53.8,29.47,North,0,0.9,1.3,97,0.00,,---,0.04,VWS V14.01,2013-05-19 11:41:00,
2013-05-19 05:56:00,54.7,54.4,29.50,NW,315,1.1,1.1,99,0.00,,---,0.04,VWS V14.01,2013-05-19 11:56:00,
2013-05-19 06:11:00,55.0,55.0,29.50,North,0,2.5,2.5,100,0.00,,---,0.04,VWS V14.01,2013-05-19 12:11:00,
2013-05-19 06:26:00,55.2,55.2,29.53,NW,315,1.1,2.5,100,0.00,,---,0.04,VWS V14.01,2013-05-19 12:26:00,
2013-05-19 06:41:00,55.6,55.6,29.50,NW,315,2.5,2.5,100,0.00,,---,0.04,VWS V14.01,2013-05-19 12:41:00,
2013-05-19 06:56:00,55.8,55.5,29.53,NNW,338,2.5,2.5,99,0.00,,---,0.04,VWS V14.01,2013-05-19 12:56:00,
2013-05-19 07:11:00,55.9,54.8,29.53,NW,315,0.0,2.5,96,0.00,,---,0.04,VWS V14.01,2013-05-19 13:11:00,
2013-05-19 07:26:00,56.5,55.1,29.53,West,270,2.5,2.5,95,0.00,,---,0.04,VWS V14.01,2013-05-19 13:26:00,
2013-05-19 07:41:00,57.0,54.7,29.53,WSW,248,3.8,3.8,92,0.00,,---,0.04,VWS V14.01,2013-05-19 13:41:00,
2013-05-19 07:56:00,58.8,56.2,29.50,WNW,292,0.0,3.8,91,0.00,,---,0.04,VWS V14.01,2013-05-19 13:56:00,
2013-05-19 08:11:00,60.1,56.2,29.50,WSW,248,1.3,1.3,87,0.00,,---,0.04,VWS V14.01,2013-05-19 14:11:00,
2013-05-19 08:26:00,60.8,55.6,29.50,SSE,158,2.5,2.5,83,0.00,,---,0.04,VWS V14.01,2013-05-19 14:26:00,
2013-05-19 08:41:00,60.1,53.2,29.50,NW,315,2.5,2.5,78,0.00,,---,0.04,VWS V14.01,2013-05-19 14:41:00,
2013-05-19 08:56:00,59.4,54.2,29.50,NNE,22,2.0,2.5,83,0.00,,---,0.04,VWS V14.01,2013-05-19 14:56:00,
2013-05-19 09:11:00,58.1,54.3,29.50,WSW,248,0.0,2.0,87,0.00,,---,0.04,VWS V14.01,2013-05-19 15:11:00,
2013-05-19 09:26:00,57.6,54.3,29.50,NNW,338,0.0,0.0,89,0.00,,---,0.04,VWS V14.01,2013-05-19 15:26:00,
2013-05-19 09:41:00,57.4,54.8,29.50,NNW,338,0.0,0.0,91,0.00,,---,0.04,VWS V14.01,2013-05-19 15:41:00,
2013-05-19 09:56:00,57.6,55.6,29.50,SW,225,2.7,2.7,93,0.00,,---,0.04,VWS V14.01,2013-05-19 15:56:00,
2013-05-19 10:11:00,57.7,54.5,29.50,NW,315,2.9,2.9,89,0.00,,---,0.04,VWS V14.01,2013-05-19 16:11:00,
2013-05-19 10:26:00,56.8,53.9,29.50,NW,315,3.6,3.6,90,0.00,,---,0.04,VWS V14.01,2013-05-19 16:26:00,
2013-05-19 10:41:00,57.2,55.5,29.50,NNW,338,4.0,4.0,94,0.00,,---,0.04,VWS V14.01,2013-05-19 16:41:00,
2013-05-19 10:56:00,58.3,55.4,29.50,NW,315,1.1,4.0,90,0.00,,---,0.04,VWS V14.01,2013-05-19 16:56:00,
2013-05-19 11:11:00,58.8,55.0,29.47,NW,315,6.5,6.5,87,0.00,,---,0.04,VWS V14.01,2013-05-19 17:11:00,
2013-05-19 11:26:00,60.1,54.9,29.50,NW,315,5.4,6.5,83,0.00,,---,0.04,VWS V14.01,2013-05-19 17:26:00,
2013-05-19 11:41:00,62.8,54.4,29.50,NW,315,4.0,5.4,74,0.00,,---,0.04,VWS V14.01,2013-05-19 17:41:00,
2013-05-19 11:56:00,63.7,53.7,29.50,NE,45,6.3,6.3,70,0.00,,---,0.04,VWS V14.01,2013-05-19 17:56:00,
2013-05-19 12:11:00,61.7,51.4,29.50,NW,315,4.0,6.3,69,0.00,,---,0.04,VWS V14.01,2013-05-19 18:11:00,
2013-05-19 12:26:00,62.1,54.8,29.50,NNW,338,3.6,4.0,77,0.00,,---,0.04,VWS V14.01,2013-05-19 18:26:00,
2013-05-19 12:41:00,61.3,53.0,29.50,NNE,22,3.1,3.6,74,0.00,,---,0.04,VWS V14.01,2013-05-19 18:41:00,
2013-05-19 12:56:00,60.1,53.2,29.50,NNW,338,5.8,5.8,78,0.00,,---,0.04,VWS V14.01,2013-05-19 18:56:00,
2013-05-19 13:19:00,60.1,53.2,29.50,NNW,338,5.8,5.8,78,0.04,,---,0.08,VWS V14.01,2013-05-19 19:19:00,
2013-05-19 13:20:00,60.1,53.2,29.50,NNW,338,5.8,5.8,78,0.00,,---,0.04,VWS V14.01,2013-05-19 19:20:00,
2013-05-19 13:21:00,60.1,53.2,29.53,NNW,338,5.4,5.8,78,0.00,,---,0.04,VWS V14.01,2013-05-19 19:21:00,
2013-05-19 13:22:00,58.6,54.8,29.53,ENE,68,4.3,5.4,87,0.00,,---,0.04,VWS V14.01,2013-05-19 19:22:00,
2013-05-19 13:23:00,58.5,54.6,29.50,NW,315,4.0,4.3,87,0.00,,---,0.04,VWS V14.01,2013-05-19 19:23:00,
2013-05-19 13:24:00,58.5,54.6,29.50,NW,315,4.0,4.0,87,0.00,,---,0.04,VWS V14.01,2013-05-19 19:24:00,
2013-05-19 13:25:00,58.1,53.9,29.50,NW,315,4.0,4.0,86,0.04,,---,0.08,VWS V14.01,2013-05-19 19:25:00,
2013-05-19 13:26:00,57.9,54.1,29.50,NNW,338,4.9,4.9,87,0.04,,---,0.08,VWS V14.01,2013-05-19 19:26:00,
2013-05-19 13:27:00,57.9,54.1,29.50,NNW,338,4.9,4.9,87,0.04,,---,0.08,VWS V14.01,2013-05-19 19:27:00,
2013-05-19 13:28:00,57.9,54.4,29.50,NNW,338,4.9,4.9,88,0.04,,---,0.08,VWS V14.01,2013-05-19 19:28:00,
2013-05-19 13:29:00,57.9,54.4,29.50,NNW,338,4.9,4.9,88,0.04,,---,0.08,VWS V14.01,2013-05-19 19:29:00,
2013-05-19 13:30:00,57.7,54.2,29.50,NNW,338,3.1,4.9,88,0.04,,---,0.08,VWS V14.01,2013-05-19 19:30:00,
2013-05-19 13:31:00,57.7,54.5,29.50,NNW,338,4.5,4.5,89,0.04,,---,0.08,VWS V14.01,2013-05-19 19:31:00,
2013-05-19 13:32:00,57.6,54.0,29.50,NNW,338,4.5,4.5,88,0.04,,---,0.08,VWS V14.01,2013-05-19 19:32:00,
2013-05-19 13:33:00,57.6,54.0,29.50,NNW,338,4.5,4.5,88,0.04,,---,0.08,VWS V14.01,2013-05-19 19:33:00,
2013-05-19 13:43:00,57.2,54.6,29.47,West,270,3.8,3.8,91,0.04,,---,0.08,VWS V14.01,2013-05-19 19:43:00,
2013-05-19 13:48:00,56.8,54.8,29.50,West,270,3.8,3.8,93,0.04,,---,0.08,VWS V14.01,2013-05-19 19:48:00,
2013-05-19 13:53:00,56.8,55.4,29.50,NW,315,4.7,4.7,95,0.00,,---,0.08,VWS V14.01,2013-05-19 19:53:00,
2013-05-19 13:58:00,56.8,55.7,29.50,NW,315,4.7,4.7,96,0.00,,---,0.08,VWS V14.01,2013-05-19 19:58:00,
2013-05-19 14:03:00,57.0,56.2,29.47,NW,315,4.7,4.7,97,0.00,,---,0.08,VWS V14.01,2013-05-19 20:03:00,
2013-05-19 14:08:00,57.0,56.2,29.47,WNW,292,3.8,3.8,97,0.00,,---,0.08,VWS V14.01,2013-05-19 20:08:00,
2013-05-19 14:13:00,57.4,56.5,29.47,WNW,292,3.8,3.8,97,0.00,,---,0.08,VWS V14.01,2013-05-19 20:13:00,
2013-05-19 14:18:00,57.7,56.9,29.47,WNW,292,3.8,3.8,97,0.04,,---,0.08,VWS V14.01,2013-05-19 20:18:00,
2013-05-19 14:23:00,57.9,56.8,29.47,WNW,292,3.8,3.8,96,0.00,,---,0.08,VWS V14.01,2013-05-19 20:23:00,
2013-05-19 14:28:00,58.1,56.7,29.47,WNW,292,3.1,3.1,95,0.00,,---,0.08,VWS V14.01,2013-05-19 20:28:00,
2013-05-19 14:33:00,58.5,57.0,29.47,WNW,292,3.1,3.1,95,0.00,,---,0.08,VWS V14.01,2013-05-19 20:33:00,
2013-05-19 14:38:00,59.9,58.2,29.47,NNW,338,2.7,3.4,94,0.00,,---,0.08,VWS V14.01,2013-05-19 20:38:00,
2013-05-19 14:43:00,60.4,56.9,29.47,NW,315,8.1,8.1,88,0.00,,---,0.08,VWS V14.01,2013-05-19 20:43:00,
2013-05-19 14:48:00,60.8,55.9,29.47,NNE,22,2.7,5.4,84,0.00,,---,0.08,VWS V14.01,2013-05-19 20:48:00,
2013-05-19 14:53:00,60.8,54.6,29.47,NW,315,8.5,8.5,80,0.00,,---,0.08,VWS V14.01,2013-05-19 20:53:00,
2013-05-19 14:58:00,60.4,54.9,29.47,NNW,338,2.7,2.7,82,0.00,,---,0.08,VWS V14.01,2013-05-19 20:58:00,
2013-05-19 15:03:00,60.1,53.9,29.47,North,0,7.2,7.2,80,0.00,,---,0.08,VWS V14.01,2013-05-19 21:03:00,
2013-05-19 15:08:00,59.7,54.9,29.47,North,0,7.2,7.2,84,0.00,,---,0.08,VWS V14.01,2013-05-19 21:08:00,
2013-05-19 15:13:00,59.9,54.7,29.47,NW,315,3.4,3.4,83,0.00,,---,0.08,VWS V14.01,2013-05-19 21:13:00,
2013-05-19 15:18:00,60.4,55.6,29.47,NW,315,3.4,3.4,84,0.00,,---,0.08,VWS V14.01,2013-05-19 21:18:00,
2013-05-19 15:23:00,60.6,54.4,29.47,NW,315,3.4,3.4,80,0.00,,---,0.08,VWS V14.01,2013-05-19 21:23:00,
2013-05-19 15:28:00,60.4,54.2,29.47,NW,315,3.4,3.4,80,0.00,,---,0.08,VWS V14.01,2013-05-19 21:28:00,
2013-05-19 15:33:00,60.1,53.9,29.47,NW,315,3.4,3.4,80,0.00,,---,0.08,VWS V14.01,2013-05-19 21:33:00,
2013-05-19 15:38:00,59.7,51.8,29.47,NNW,338,9.4,9.4,75,0.00,,---,0.08,VWS V14.01,2013-05-19 21:38:00,
2013-05-19 15:43:00,58.5,53.0,29.47,North,0,3.1,4.0,82,0.00,,---,0.08,VWS V14.01,2013-05-19 21:43:00,
2013-05-19 15:48:00,57.9,53.4,29.47,NE,45,6.7,6.7,85,0.00,,---,0.08,VWS V14.01,2013-05-19 21:48:00,
2013-05-19 15:53:00,57.7,54.2,29.47,NNW,338,3.8,6.7,88,0.00,,---,0.08,VWS V14.01,2013-05-19 21:53:00,
2013-05-19 15:58:00,57.6,53.7,29.47,NE,45,6.0,6.0,87,0.00,,---,0.08,VWS V14.01,2013-05-19 21:58:00,
2013-05-19 16:03:00,57.4,53.5,29.47,North,0,5.8,8.5,87,0.00,,---,0.08,VWS V14.01,2013-05-19 22:03:00,
2013-05-19 16:08:00,57.2,53.7,29.47,WNW,292,5.8,5.8,88,0.00,,---,0.08,VWS V14.01,2013-05-19 22:08:00,
2013-05-19 16:13:00,57.2,53.7,29.47,North,0,2.5,2.5,88,0.00,,---,0.08,VWS V14.01,2013-05-19 22:13:00,
2013-05-19 16:18:00,56.8,53.3,29.47,North,0,2.5,2.5,88,0.00,,---,0.08,VWS V14.01,2013-05-19 22:18:00,
2013-05-19 16:23:00,56.3,53.4,29.47,ESE,112,7.8,7.8,90,0.00,,---,0.08,VWS V14.01,2013-05-19 22:23:00,
2013-05-19 16:28:00,55.9,53.4,29.47,NW,315,4.3,4.3,91,0.00,,---,0.08,VWS V14.01,2013-05-19 22:28:00,
2013-05-19 16:33:00,55.8,53.8,29.47,NNW,338,5.8,5.8,93,0.00,,---,0.08,VWS V14.01,2013-05-19 22:33:00,
2013-05-19 16:38:00,55.8,54.3,29.47,NNW,338,5.8,5.8,95,0.00,,---,0.08,VWS V14.01,2013-05-19 22:38:00,
2013-05-19 16:43:00,55.8,54.1,29.47,NNW,338,5.8,5.8,94,0.00,,---,0.08,VWS V14.01,2013-05-19 22:43:00,
2013-05-19 16:48:00,55.8,53.8,29.47,NNW,338,5.8,5.8,93,0.00,,---,0.08,VWS V14.01,2013-05-19 22:48:00,
2013-05-19 16:53:00,55.9,53.7,29.47,NW,315,3.6,3.6,92,0.00,,---,0.08,VWS V14.01,2013-05-19 22:53:00,
2013-05-19 16:58:00,55.9,53.4,29.47,North,0,1.6,1.6,91,0.00,,---,0.08,VWS V14.01,2013-05-19 22:58:00,
2013-05-19 17:03:00,55.9,53.0,29.47,North,0,1.6,1.6,90,0.00,,---,0.08,VWS V14.01,2013-05-19 23:03:00,
2013-05-19 17:08:00,56.3,53.4,29.47,NNW,338,3.4,3.4,90,0.04,,---,0.12,VWS V14.01,2013-05-19 23:08:00,
2013-05-19 17:13:00,56.7,53.8,29.47,NNE,22,3.8,3.8,90,0.04,,---,0.12,VWS V14.01,2013-05-19 23:13:00,
2013-05-19 17:18:00,56.3,53.1,29.47,NNW,338,5.8,5.8,89,0.04,,---,0.12,VWS V14.01,2013-05-19 23:18:00,
2013-05-19 17:23:00,55.9,52.4,29.47,NNW,338,5.8,5.8,88,0.04,,---,0.12,VWS V14.01,2013-05-19 23:23:00,
2013-05-19 17:28:00,55.9,52.8,29.47,NNW,338,5.8,5.8,89,0.04,,---,0.12,VWS V14.01,2013-05-19 23:28:00,
2013-05-19 17:33:00,55.8,52.0,29.47,WNW,292,8.7,8.7,87,0.04,,---,0.12,VWS V14.01,2013-05-19 23:33:00,
2013-05-19 17:38:00,55.6,52.1,29.47,NNE,22,3.4,3.4,88,0.04,,---,0.12,VWS V14.01,2013-05-19 23:38:00,
2013-05-19 17:43:00,55.4,52.5,29.47,NNW,338,8.5,8.5,90,0.04,,---,0.12,VWS V14.01,2013-05-19 23:43:00,
2013-05-19 17:48:00,55.4,52.2,29.44,East,90,4.3,4.3,89,0.04,,---,0.12,VWS V14.01,2013-05-19 23:48:00,
2013-05-19 17:53:00,55.4,52.2,29.44,East,90,4.3,4.3,89,0.04,,---,0.12,VWS V14.01,2013-05-19 23:53:00,
2013-05-19 17:58:00,55.4,51.9,29.44,NW,315,8.7,8.7,88,0.04,,---,0.12,VWS V14.01,2013-05-19 23:58:00,
2013-05-19 18:03:00,55.2,52.0,29.47,North,0,8.7,8.7,89,0.04,,---,0.12,VWS V14.01,2013-05-20 00:03:00,
2013-05-19 18:08:00,55.0,51.9,29.47,NW,315,6.0,6.0,89,0.00,,---,0.12,VWS V14.01,2013-05-20 00:08:00,
2013-05-19 18:13:00,54.9,52.0,29.47,NNW,338,10.7,10.7,90,0.00,,---,0.12,VWS V14.01,2013-05-20 00:13:00,
2013-05-19 18:18:00,54.5,51.9,29.47,North,0,3.4,5.6,91,0.00,,---,0.12,VWS V14.01,2013-05-20 00:18:00,
2013-05-19 18:23:00,54.5,51.3,29.47,WNW,292,7.4,7.4,89,0.00,,---,0.12,VWS V14.01,2013-05-20 00:23:00,
2013-05-19 18:28:00,54.5,51.3,29.47,SSW,202,8.5,10.1,89,0.00,,---,0.12,VWS V14.01,2013-05-20 00:28:00,
2013-05-19 18:33:00,54.3,51.2,29.47,NNW,338,6.9,6.9,89,0.00,,---,0.12,VWS V14.01,2013-05-20 00:33:00,
2013-05-19 18:38:00,54.3,51.2,29.47,NNW,338,6.0,7.6,89,0.00,,---,0.12,VWS V14.01,2013-05-20 00:38:00,
2013-05-19 18:43:00,54.0,51.1,29.47,NE,45,4.3,4.3,90,0.00,,---,0.12,VWS V14.01,2013-05-20 00:43:00,
2013-05-19 18:48:00,53.8,51.5,29.47,NNE,22,6.0,7.6,92,0.00,,---,0.12,VWS V14.01,2013-05-20 00:48:00,
2013-05-19 18:53:00,53.4,51.7,29.47,North,0,2.7,5.4,94,0.00,,---,0.12,VWS V14.01,2013-05-20 00:53:00,
2013-05-19 18:58:00,53.4,52.3,29.47,NW,315,3.6,7.6,96,0.00,,---,0.12,VWS V14.01,2013-05-20 00:58:00,
2013-05-19 19:03:00,53.2,52.4,29.47,North,0,4.0,6.3,97,0.00,,---,0.12,VWS V14.01,2013-05-20 01:03:00,
2013-05-19 19:08:00,53.1,52.5,29.47,NNW,338,7.2,9.8,98,0.00,,---,0.12,VWS V14.01,2013-05-20 01:08:00,
2013-05-19 19:13:00,53.1,52.2,29.47,NNW,338,3.8,6.0,97,0.00,,---,0.12,VWS V14.01,2013-05-20 01:13:00,
2013-05-19 19:18:00,52.9,51.8,29.47,NW,315,4.0,5.8,96,0.00,,---,0.12,VWS V14.01,2013-05-20 01:18:00,
2013-05-19 19:23:00,52.9,52.0,29.47,North,0,3.8,5.6,97,0.00,,---,0.12,VWS V14.01,2013-05-20 01:23:00,
2013-05-19 19:28:00,52.9,51.8,29.47,East,90,8.1,8.7,96,0.00,,---,0.12,VWS V14.01,2013-05-20 01:28:00,
2013-05-19 19:33:00,52.9,51.2,29.47,NNW,338,8.7,9.6,94,0.00,,---,0.12,VWS V14.01,2013-05-20 01:33:00,
2013-05-19 19:53:00,52.5,50.8,29.47,WNW,292,4.3,4.3,94,0.00,,---,0.12,VWS V14.01,2013-05-20 01:53:00,
2013-05-19 20:08:00,52.2,50.2,29.47,NW,315,6.3,6.3,93,0.00,,---,0.12,VWS V14.01,2013-05-20 02:08:00,
2013-05-19 20:23:00,52.0,50.0,29.47,NNW,338,8.5,8.5,93,0.00,,---,0.12,VWS V14.01,2013-05-20 02:23:00,
2013-05-19 20:38:00,52.0,49.1,29.47,North,0,7.8,8.5,90,0.00,,---,0.12,VWS V14.01,2013-05-20 02:38:00,
2013-05-19 20:53:00,52.0,48.8,29.47,NNE,22,4.0,7.8,89,0.00,,---,0.12,VWS V14.01,2013-05-20 02:53:00,
2013-05-19 21:08:00,52.3,49.2,29.50,NW,315,4.0,4.0,89,0.00,,---,0.12,VWS V14.01,2013-05-20 03:08:00,
2013-05-19 21:23:00,52.5,48.8,29.50,East,90,5.8,5.8,87,0.00,,---,0.12,VWS V14.01,2013-05-20 03:23:00,
2013-05-19 21:38:00,52.2,47.8,29.50,NNW,338,4.3,5.8,85,0.00,,---,0.12,VWS V14.01,2013-05-20 03:38:00,
2013-05-19 21:53:00,52.2,47.5,29.50,NNW,338,8.1,8.1,84,0.00,,---,0.12,VWS V14.01,2013-05-20 03:53:00,
2013-05-19 22:08:00,52.0,47.3,29.50,North,0,3.8,8.1,84,0.00,,---,0.12,VWS V14.01,2013-05-20 04:08:00,
2013-05-19 22:23:00,51.6,47.9,29.50,NNW,338,10.3,10.3,87,0.00,,---,0.12,VWS V14.01,2013-05-20 04:23:00,
2013-05-19 22:38:00,52.0,47.3,29.47,North,0,8.7,10.3,84,0.00,,---,0.12,VWS V14.01,2013-05-20 04:38:00,
2013-05-19 22:53:00,51.8,46.8,29.47,NNW,338,12.8,12.8,83,0.00,,---,0.12,VWS V14.01,2013-05-20 04:53:00,
2013-05-19 23:08:00,52.2,46.5,29.47,WNW,292,2.9,12.8,81,0.00,,---,0.12,VWS V14.01,2013-05-20 05:08:00,
2013-05-19 23:23:00,52.2,45.8,29.44,WNW,292,6.3,6.3,79,0.00,,---,0.12,VWS V14.01,2013-05-20 05:23:00,
2013-05-19 23:38:00,52.0,45.7,29.44,NW,315,3.6,6.3,79,0.00,,---,0.12,VWS V14.01,2013-05-20 05:38:00,
2013-05-19 23:53:00,52.0,45.3,29.44,WNW,292,3.4,3.6,78,0.00,,---,0.12,VWS V14.01,2013-05-20 05:53:00,